Flight Track Log - Related Links

Times and Time Zones

All times are in EDT time to prevent confusion due to time zone crossing. See the UPS238 flight status page for this flight to view local times or setup timezone preferences in your user account.


Time Position Orientation Groundspeed Altitude Reporting Facility
EDT Latitude Longitude Course Direction KTS MPH feet Rate Location/Type
Mon 06:32:56 PM 60.6620 -24.9950 293° West 409 471 32,100  Level FlightAware ADS-B
Mon 06:33:00 PM 55.4679 -29.3604 293° West  Level Estimated
Mon 06:33:39 PM 60.7030 -25.1350 301° West 410 472 32,000  Level FlightAware ADS-B
Mon 06:34:24 PM 60.7480 -25.2860 301° West 409 471 32,000  Level FlightAware ADS-B
Mon 06:35:04 PM 60.7860 -25.4150 301° West 410 472 32,000 63 Level FlightAware ADS-B
Mon 06:35:59 PM 60.8340 -25.5850 300° West 410 472 32,100 67 Climbing FlightAware ADS-B
Mon 06:36:34 PM 60.8630 -25.6850 301° West 410 472 32,100  Level FlightAware ADS-B
Mon 06:37:23 PM 60.9020 -25.8260 300° West 410 472 32,100  Level FlightAware ADS-B
Mon 06:38:00 PM 60.9320 -25.9320 300° West 410 472 32,100  Level FlightAware ADS-B
Mon 06:38:48 PM 60.9710 -26.0700 300° West 410 472 32,100  Level FlightAware ADS-B
Mon 06:39:38 PM 61.0510 -26.3400 302° West 418 481 32,100  Level FlightAware ADS-B
Mon 06:40:23 PM 61.0880 -26.4730 300° West 418 481 32,100  Level FlightAware ADS-B
Mon 06:41:01 PM 61.1190 -26.5850 300° West 418 481 32,100  Level FlightAware ADS-B
Mon 06:41:47 PM 61.1570 -26.7200 300° West 418 481 32,100  Level FlightAware ADS-B
Mon 06:42:48 PM 61.2070 -26.9000 300° West 418 481 32,100  Level FlightAware ADS-B
Mon 06:43:37 PM 61.2470 -27.0450 300° West 418 481 32,100  Level FlightAware ADS-B
Mon 06:44:13 PM 61.2770 -27.1520 300° West 418 481 32,100  Level FlightAware ADS-B
Mon 06:45:00 PM 61.3160 -27.2910 300° West 418 481 32,100  Level FlightAware ADS-B
Mon 06:45:48 PM 61.3550 -27.4340 300° West 418 481 32,100  Level FlightAware ADS-B
Mon 06:46:25 PM 61.3850 -27.5440 300° West 418 481 32,100  Level FlightAware ADS-B
Mon 06:47:11 PM 61.4890 -27.9560 298° West 433 498 32,100  Level FlightAware ADS-B
Mon 06:47:55 PM 61.5310 -28.1160 299° West 433 498 32,100  Level FlightAware ADS-B
Mon 06:48:36 PM 61.5710 -28.2690 299° West 431 496 32,100 -71 Level FlightAware ADS-B
Mon 06:49:20 PM 61.6120 -28.4310 298° West 430 495 32,000 -77 Descending FlightAware ADS-B
Mon 06:49:54 PM 61.6440 -28.5550 299° West 428 493 32,000  Level FlightAware ADS-B
Mon 06:50:36 PM 61.6830 -28.7070 298° West 426 490 32,000  Level FlightAware ADS-B
Mon 06:51:16 PM 61.7200 -28.8550 298° West 427 491 32,000 79 Level FlightAware ADS-B
Mon 06:51:52 PM 61.7530 -28.9880 298° West 426 490 32,100  Climbing FlightAware ADS-B
Mon 06:52:35 PM 61.7920 -29.1430 298° West 425 489 32,000 -75 Descending FlightAware ADS-B
Mon 06:53:12 PM 61.8200 -29.2600 297° West 425 489 32,000  Level FlightAware ADS-B
Mon 06:53:48 PM 61.8480 -29.3740 298° West 425 489 32,000  Level FlightAware ADS-B
Mon 06:54:36 PM 61.8840 -29.5260 297° West 425 489 32,000  Level FlightAware ADS-B
Mon 06:55:12 PM 61.9110 -29.6390 297° West 425 489 32,000  Level FlightAware ADS-B
Mon 06:55:49 PM 61.9390 -29.7570 297° West 425 489 32,000  Level FlightAware ADS-B
Mon 06:56:39 PM 61.9770 -29.9150 297° West 425 489 32,000  Level FlightAware ADS-B
Mon 06:57:15 PM 62.0040 -30.0290 297° West 425 489 32,000  Level FlightAware ADS-B
Mon 06:58:03 PM 62.0410 -30.1820 297° West 425 489 32,000  Level FlightAware ADS-B
Mon 06:58:39 PM 62.0680 -30.2960 297° West 425 489 32,000  Level FlightAware ADS-B
Mon 06:59:15 PM 62.0950 -30.4100 297° West 425 489 32,000  Level FlightAware ADS-B
Mon 07:00:04 PM 62.1330 -30.5670 297° West 425 489 32,000  Level FlightAware ADS-B
Mon 07:00:41 PM 62.1610 -30.6840 297° West 425 489 32,000  Level FlightAware ADS-B
Mon 07:01:29 PM 62.1970 -30.8380 297° West 425 489 32,000  Level FlightAware ADS-B
Mon 07:02:06 PM 62.2250 -30.9560 297° West 425 489 32,000  Level FlightAware ADS-B
Mon 07:02:42 PM 62.2520 -31.0710 297° West 425 489 32,000  Level FlightAware ADS-B
Mon 07:05:00 PM 62.3202 -31.6584 284° West  Level FlightAware Approximate
Mon 07:06:00 PM 62.3490 -31.9146 284° West  Level FlightAware Approximate
Mon 07:07:00 PM 62.3774 -32.1713 284° West  Level FlightAware Approximate
Mon 07:08:00 PM 62.4053 -32.4285 283° West  Level FlightAware Approximate
Mon 07:09:00 PM 62.4328 -32.6862 283° West  Level FlightAware Approximate
Mon 07:10:00 PM 62.4598 -32.9443 283° West  Level FlightAware Approximate
Mon 07:11:00 PM 62.4862 -33.2029 283° West  Level FlightAware Approximate
Mon 07:12:00 PM 62.5122 -33.4619 282° West  Level FlightAware Approximate
Mon 07:13:00 PM 62.5378 -33.7214 282° West  Level FlightAware Approximate
Mon 07:14:00 PM 62.5628 -33.9814 282° West  Level FlightAware Approximate
Mon 07:15:00 PM 62.5874 -34.2417 282° West  Level FlightAware Approximate
Mon 07:16:00 PM 62.6115 -34.5025 281° West  Level FlightAware Approximate
Mon 07:17:00 PM 62.6351 -34.7638 281° West  Level FlightAware Approximate
Mon 07:18:00 PM 62.6582 -35.0254 281° West  Level FlightAware Approximate
Mon 07:19:00 PM 62.6808 -35.2874 281° West  Level FlightAware Approximate
Mon 07:20:00 PM 62.7029 -35.5499 281° West  Level FlightAware Approximate
Mon 07:21:00 PM 62.7246 -35.8127 280° West  Level FlightAware Approximate
Mon 07:22:00 PM 62.7457 -36.0759 280° West  Level FlightAware Approximate
Mon 07:23:00 PM 62.7664 -36.3394 280° West  Level FlightAware Approximate
Mon 07:24:00 PM 62.7865 -36.6034 280° West  Level FlightAware Approximate
Mon 07:25:00 PM 62.8062 -36.8677 279° West  Level FlightAware Approximate
Mon 07:26:00 PM 62.8254 -37.1323 279° West  Level FlightAware Approximate
Mon 07:27:00 PM 62.8441 -37.3973 279° West  Level FlightAware Approximate
Mon 07:27:10 PM 62.8333 -37.3833 278° West 430 495 32,000  Level Gander Center
Mon 07:28:00 PM 62.8622 -37.6626 279° West  Level FlightAware Approximate
Mon 07:28:10 PM 62.8500 -37.6667 277° West 430 495 32,000  Level Gander Center
Mon 07:29:00 PM 62.8799 -37.9282 278° West  Level FlightAware Approximate
Mon 07:29:10 PM 62.8833 -37.9167 286° West 430 495 32,000  Level Gander Center
Mon 07:30:00 PM 62.8971 -38.1942 278° West  Level FlightAware Approximate
Mon 07:30:10 PM 62.8833 -38.1500 270° West 430 495 32,000  Level Gander Center
Mon 07:31:00 PM 62.9137 -38.4605 278° West  Level FlightAware Approximate
Mon 07:31:10 PM 62.9000 -38.4000 278° West 430 495 32,000  Level Gander Center
Mon 07:32:00 PM 62.9299 -38.7270 278° West  Level FlightAware Approximate
Mon 07:32:10 PM 62.9333 -38.6500 286° West 430 495 32,100  Level Gander Center
Mon 07:33:10 PM 62.9500 -38.9333 277° West 430 495 32,000 -50 Descending Gander Center
Mon 07:34:10 PM 62.9667 -39.1833 278° West 430 495 32,000 15 Level Gander Center
Mon 07:37:00 PM 62.8915 -39.6480 251° West  Level Estimated
Mon 07:39:50 PM 62.9500 -40.6333 249° West 430 495 32,100  Level Gander Center
Mon 07:40:50 PM 62.9333 -40.9167 263° West 430 495 32,000  Descending Gander Center
Mon 07:41:50 PM 62.9167 -41.1500 261° West 430 495 32,100  Climbing Gander Center
Mon 07:42:50 PM 62.9000 -41.4167 262° West 430 495 32,000  Descending Gander Center
Mon 07:43:50 PM 62.8833 -41.6667 262° West 430 495 32,100  Climbing Gander Center
Mon 07:44:00 PM 62.5905 -41.3997 250° West  Level Estimated
Mon 07:44:50 PM 62.8667 -41.9000 261° West 430 495 32,000  Level Gander Center
Mon 07:45:00 PM 62.5457 -41.6470 249° West  Level Estimated
Mon 07:45:50 PM 62.8500 -42.1667 262° West 430 495 32,000  Level Gander Center
Mon 07:46:50 PM 62.8333 -42.4167 262° West 430 495 32,100 50 Climbing Gander Center
Mon 07:47:50 PM 62.8000 -42.6833 255° West 430 495 32,100 -50 Level Gander Center
Mon 07:48:50 PM 62.7833 -42.9333 262° West 430 495 32,000  Descending Gander Center
Mon 07:49:50 PM 62.7667 -43.2000 262° West 430 495 32,100 50 Climbing Gander Center
Mon 07:50:50 PM 62.7500 -43.4333 261° West 430 495 32,100  Level Gander Center
Mon 07:51:50 PM 62.7167 -43.6667 253° West 430 495 32,100 -50 Level Gander Center
Mon 07:52:50 PM 62.7000 -43.9333 262° West 420 483 32,000 -50 Descending Gander Center
Mon 07:53:50 PM 62.6833 -44.1833 262° West 420 483 32,000 50 Level Gander Center
Mon 07:54:50 PM 62.6500 -44.4167 253° West 420 483 32,100 50 Climbing Gander Center
Mon 07:55:50 PM 62.6333 -44.6833 262° West 420 483 32,100  Level Gander Center
Mon 07:56:50 PM 62.6167 -44.9167 261° West 420 483 32,100  Level Gander Center
Mon 07:57:50 PM 62.5667 -45.1500 245° Southwest 420 483 32,100  Level Gander Center
Mon 07:58:50 PM 62.5500 -45.4333 263° West 420 483 32,100 -50 Level Gander Center
Mon 07:59:50 PM 62.5333 -45.6500 261° West 430 495 32,000 -50 Descending Gander Center
Mon 08:00:50 PM 62.5000 -45.9000 254° West 430 495 32,000  Level Gander Center
Mon 08:01:50 PM 62.4667 -46.1333 253° West 430 495 32,000  Level Gander Center
Mon 08:02:50 PM 62.4500 -46.4000 262° West 430 495 32,000  Level Gander Center
Mon 08:03:50 PM 62.4333 -46.6667 262° West 430 495 32,000  Level Gander Center
Mon 08:04:50 PM 62.4000 -46.8833 252° West 430 495 32,000 14 Level Gander Center
Mon 08:10:58 PM 62.2010 -48.4950 252° West 430 495 32,100 15 Climbing FlightAware ADS-B
Mon 08:11:37 PM 62.1820 -48.6310 253° West 430 495 32,100  Level FlightAware ADS-B
Mon 08:12:14 PM 62.1650 -48.7600 254° West 430 495 32,100  Level FlightAware ADS-B
Mon 08:13:07 PM 62.1310 -49.0360 255° West 430 495 32,100  Level FlightAware ADS-B
Mon 08:14:23 PM 62.0920 -49.3310 254° West 430 495 32,100 -48 Level FlightAware ADS-B
Mon 08:15:11 PM 62.0630 -49.5390 254° West 430 495 32,000 -71 Descending FlightAware ADS-B
Mon 08:15:48 PM 62.0450 -49.6670 253° West 430 495 32,000  Level FlightAware ADS-B
Mon 08:16:37 PM 62.0200 -49.8360 253° West 430 495 32,000  Level FlightAware ADS-B
Mon 08:17:13 PM 62.0030 -49.9600 254° West 430 495 32,000  Level FlightAware ADS-B
Mon 08:18:14 PM 61.9570 -50.2730 253° West 432 497 32,000  Level FlightAware ADS-B
Mon 08:18:48 PM 61.9390 -50.3890 252° West 432 497 32,000  Level FlightAware ADS-B
Mon 08:19:28 PM 61.9100 -50.5760 252° West 432 497 32,000  Level FlightAware ADS-B
Mon 08:20:17 PM 61.8830 -50.7430 251° West 432 497 32,000  Level FlightAware ADS-B
Mon 08:20:53 PM 61.8630 -50.8660 251° West 432 497 32,000  Level FlightAware ADS-B
Mon 08:21:29 PM 61.8430 -50.9880 251° West 432 497 32,000  Level FlightAware ADS-B
Mon 08:22:18 PM 61.8160 -51.1550 251° West 432 497 32,000  Level FlightAware ADS-B
Mon 08:22:53 PM 61.7970 -51.2740 251° West 432 497 32,000  Level FlightAware ADS-B
Mon 08:23:30 PM 61.7500 -51.5660 251° West 436 502 32,000 74 Level FlightAware ADS-B
Mon 08:24:14 PM 61.7210 -51.7450 251° West 437 503 32,100 67 Climbing FlightAware ADS-B
Mon 08:25:00 PM 61.6930 -51.9030 250° West 437 503 32,100  Level FlightAware ADS-B
Mon 08:25:36 PM 61.6720 -52.0260 250° West 437 503 32,100  Level FlightAware ADS-B
Mon 08:26:24 PM 61.6440 -52.1890 250° West 437 503 32,100  Level FlightAware ADS-B
Mon 08:27:00 PM 61.6230 -52.3120 250° West 437 503 32,100  Level FlightAware ADS-B
Mon 08:27:46 PM 61.5960 -52.4680 250° West 437 503 32,100 -73 Level FlightAware ADS-B
Mon 08:28:22 PM 61.5530 -52.7120 250° West 437 503 32,000 -71 Descending FlightAware ADS-B
Mon 08:29:11 PM 61.5230 -52.8770 249° West 437 503 32,000 65 Level FlightAware ADS-B
Mon 08:29:55 PM 61.4860 -53.0880 250° West 438 504 32,100 75 Climbing FlightAware ADS-B
Mon 08:30:31 PM 61.4640 -53.2090 249° West 438 504 32,100  Level FlightAware ADS-B
Mon 08:31:32 PM 61.4270 -53.4140 249° West 438 504 32,100  Level FlightAware ADS-B
Mon 08:32:21 PM 61.3960 -53.5790 249° West 438 504 32,100  Level FlightAware ADS-B
Mon 08:32:58 PM 61.3730 -53.7030 249° West 438 504 32,100  Level FlightAware ADS-B
Mon 08:33:35 PM 61.3510 -53.8270 250° West 438 504 32,100  Level FlightAware ADS-B
Mon 08:34:23 PM 61.3210 -53.9880 249° West 438 504 32,100  Level FlightAware ADS-B
Mon 08:35:23 PM 61.2840 -54.1890 249° West 438 504 32,100  Level FlightAware ADS-B
Mon 08:35:59 PM 61.2620 -54.3090 249° West 438 504 32,100  Level FlightAware ADS-B
Mon 08:36:48 PM 61.2310 -54.4730 249° West 438 504 32,100  Level FlightAware ADS-B
Mon 08:37:36 PM 61.2020 -54.6330 249° West 438 504 32,100 -91 Level FlightAware ADS-B
Mon 08:37:54 PM 62.0000 -50.0000 252° West 438 504 32,000  Descending ETMS Enhanced Traffic Management System
Mon 08:38:12 PM 61.1800 -54.7530 249° West 438 504 32,100 115 Climbing FlightAware ADS-B
Mon 08:38:46 PM 61.1000 -55.1333 252° West 450 518 32,100  Level Gander Center
Mon 08:38:51 PM 61.1550 -54.8830 248° West 438 504 32,100 -100 Level FlightAware ADS-B
Mon 08:39:46 PM 61.0500 -55.3667 246° West 450 518 32,000 -52 Descending Gander Center
Mon 08:40:46 PM 61.0000 -55.5833 245° Southwest 450 518 32,000  Level Gander Center
Mon 08:41:46 PM 60.9667 -55.8333 255° West 450 518 32,000 50 Level Gander Center
Mon 08:42:46 PM 60.9000 -56.0500 238° Southwest 450 518 32,100  Climbing Gander Center
Mon 08:43:46 PM 60.8667 -56.3000 255° West 450 518 32,000  Descending Gander Center
Mon 08:44:46 PM 60.8000 -56.5500 241° Southwest 450 518 32,100 50 Climbing Gander Center
Mon 08:45:46 PM 60.7667 -56.7833 254° West 460 529 32,100 -50 Level Gander Center
Mon 08:46:46 PM 60.7000 -57.0333 241° Southwest 470 541 32,000  Descending Gander Center
Mon 08:47:46 PM 60.6667 -57.2833 255° West 460 529 32,100  Climbing Gander Center
Mon 08:48:46 PM 60.6000 -57.4833 236° Southwest 460 529 32,000  Descending Gander Center
Mon 08:49:46 PM 60.5333 -57.7333 242° Southwest 460 529 32,100 50 Climbing Gander Center
Mon 08:50:46 PM 60.5000 -57.9667 254° West 460 529 32,100 -50 Level Gander Center
Mon 08:51:46 PM 60.4333 -58.2167 242° Southwest 470 541 32,000 -50 Descending Gander Center
Mon 08:52:46 PM 60.3833 -58.4500 247° West 470 541 32,000 50 Level Gander Center
Mon 08:53:46 PM 60.3333 -58.7000 248° West 470 541 32,100 50 Climbing Gander Center
Mon 08:54:46 PM 60.2667 -58.9333 240° Southwest 470 541 32,100 -50 Level Gander Center
Mon 08:55:46 PM 60.2167 -59.1667 247° West 470 541 32,000  Descending Gander Center
Mon 08:56:46 PM 60.1500 -59.4167 242° Southwest 480 552 32,100 50 Climbing Gander Center
Mon 08:57:46 PM 60.0833 -59.6500 240° Southwest 480 552 32,100 -48 Level Gander Center
Mon 08:58:50 PM 60.0333 -59.8833 247° West 480 552 32,000  Descending Gander Center
Mon 08:59:46 PM 59.9833 -60.1167 247° West 480 552 32,100 52 Climbing Gander Center
Mon 09:00:46 PM 59.9500 -60.3833 256° West 480 552 32,100 -50 Level Gander Center
Mon 09:01:46 PM 59.9000 -60.6167 247° West 480 552 32,000 -50 Descending Gander Center
Mon 09:02:46 PM 59.8667 -60.8167 252° West 480 552 32,000  Level Gander Center
Mon 09:03:46 PM 59.8333 -61.0833 256° West 480 552 32,000  Level Gander Center
Mon 09:04:46 PM 59.7833 -61.3500 250° West 480 552 32,000  Level Gander Center
Mon 09:05:46 PM 59.7500 -61.5833 254° West 480 552 32,000 50 Level Gander Center
Mon 09:06:46 PM 59.6667 -61.8833 241° Southwest 500 575 32,100 50 Climbing Gander Center
Mon 09:07:46 PM 59.5833 -62.1000 233° Southwest 510 587 32,100 -50 Level Gander Center
Mon 09:08:46 PM 59.5000 -62.3333 235° Southwest 510 587 32,000 -48 Descending Gander Center
Mon 09:09:50 PM 59.4167 -62.5500 233° Southwest 510 587 32,000 50 Level Gander Center
Mon 09:10:46 PM 59.3500 -62.7833 241° Southwest 520 598 32,100 52 Climbing Gander Center
Mon 09:11:46 PM 59.2500 -63.0000 228° Southwest 520 598 32,100  Level Gander Center
Mon 09:12:46 PM 59.1667 -63.2333 235° Southwest 530 610 32,100  Level Gander Center
Mon 09:13:46 PM 59.0833 -63.4833 237° Southwest 530 610 32,100  Level Gander Center
Mon 09:14:46 PM 59.0167 -63.7000 239° Southwest 530 610 32,100  Level Gander Center
Mon 09:15:46 PM 58.9333 -63.9333 235° Southwest 530 610 32,100  Level Gander Center
Mon 09:16:46 PM 58.8167 -64.1833 228° Southwest 530 610 32,100  Level Gander Center
Mon 09:17:46 PM 58.7500 -64.4333 243° Southwest 530 610 32,100  Level Gander Center
Mon 09:18:46 PM 58.6667 -64.6500 234° Southwest 530 610 32,100  Level Gander Center
Mon 09:19:46 PM 58.5667 -64.8667 229° Southwest 530 610 32,100  Level Gander Center
Mon 09:20:46 PM 58.4833 -65.1000 236° Southwest 530 610 32,100  Level Gander Center
Mon 09:21:46 PM 58.4000 -65.3167 234° Southwest 520 598 32,100  Level Gander Center
Mon 09:22:46 PM 58.3000 -65.5333 229° Southwest 530 610 32,100  Level Gander Center
Mon 09:23:46 PM 58.2333 -65.7500 240° Southwest 520 598 32,100  Level Gander Center
Mon 09:24:46 PM 58.1333 -65.9500 227° Southwest 520 598 32,100  Level Gander Center
Mon 09:25:46 PM 58.0500 -66.2000 238° Southwest 520 598 32,100  Level Gander Center
Mon 09:26:46 PM 57.9500 -66.4000 227° Southwest 520 598 32,100  Level Gander Center
Mon 09:27:46 PM 57.8833 -66.6167 240° Southwest 520 598 32,100  Level Gander Center
Mon 09:28:46 PM 57.7833 -66.8167 227° Southwest 520 598 32,100  Level Gander Center
Mon 09:29:46 PM 57.7000 -67.0333 234° Southwest 520 598 32,100  Level Gander Center
Mon 09:30:46 PM 57.6167 -67.2333 232° Southwest 510 587 32,100  Level Gander Center
Mon 09:31:46 PM 57.5167 -67.4667 231° Southwest 510 587 32,100  Level Gander Center
Mon 09:32:46 PM 57.4500 -67.7000 242° Southwest 510 587 32,100  Level Gander Center
Mon 09:33:46 PM 57.3500 -67.9000 227° Southwest 510 587 32,100  Level Gander Center
Mon 09:34:46 PM 57.2667 -68.1167 235° Southwest 510 587 32,100  Level Gander Center
Mon 09:35:46 PM 57.2000 -68.3167 238° Southwest 510 587 32,100  Level Gander Center
Mon 09:36:46 PM 57.1167 -68.5167 233° Southwest 510 587 32,100  Level Gander Center
Mon 09:37:46 PM 57.0167 -68.7333 230° Southwest 500 575 32,100  Level Gander Center
Mon 09:38:46 PM 56.9500 -68.9333 239° Southwest 500 575 32,100  Level Gander Center
Mon 09:39:46 PM 56.8667 -69.1333 233° Southwest 500 575 32,100  Level Gander Center
Mon 09:40:46 PM 56.7833 -69.3333 233° Southwest 500 575 32,100  Level Gander Center
Mon 09:41:46 PM 56.6833 -69.5333 228° Southwest 500 575 32,100  Level Gander Center
Mon 09:42:46 PM 56.6167 -69.7333 239° Southwest 500 575 32,100  Level Gander Center
Mon 09:43:46 PM 56.5333 -69.9167 231° Southwest 490 564 32,100  Level Gander Center
Mon 09:44:46 PM 56.4500 -70.1500 237° Southwest 490 564 32,100  Level Gander Center
Mon 09:45:46 PM 56.3500 -70.3333 225° Southwest 490 564 32,100  Level Gander Center
Mon 09:46:46 PM 56.2667 -70.5333 233° Southwest 490 564 32,100 -50 Level Gander Center
Mon 09:47:46 PM 56.1833 -70.7167 231° Southwest 490 564 32,000  Descending Gander Center
Mon 09:48:46 PM 56.1000 -70.8833 228° Southwest 490 564 32,100 50 Climbing Gander Center
Mon 09:49:46 PM 56.0333 -71.0667 237° Southwest 490 564 32,100  Level Gander Center
Mon 09:50:46 PM 55.9500 -71.2667 233° Southwest 490 564 32,100  Level Gander Center
Mon 09:51:46 PM 55.8500 -71.4500 226° Southwest 490 564 32,100  Level Gander Center
Mon 09:52:46 PM 55.7667 -71.6333 231° Southwest 490 564 32,100  Level Gander Center
Mon 09:53:46 PM 55.6833 -71.8500 236° Southwest 490 564 32,100  Level Gander Center
Mon 09:54:46 PM 55.6000 -72.0333 231° Southwest 490 564 32,100  Level Gander Center
Mon 09:55:46 PM 55.5167 -72.2333 234° Southwest 490 564 32,100  Level Gander Center
Mon 09:56:46 PM 55.4333 -72.4167 231° Southwest 480 552 32,100  Level Gander Center
Mon 09:57:46 PM 55.3333 -72.5667 220° Southwest 480 552 32,100  Level Gander Center
Mon 09:58:46 PM 55.2500 -72.7500 231° Southwest 480 552 32,100  Level Gander Center
Mon 09:59:46 PM 55.1667 -72.9333 232° Southwest 480 552 32,100  Level Gander Center
Mon 10:00:46 PM 55.0667 -73.1167 226° Southwest 470 541 32,100  Level Gander Center
Mon 10:01:46 PM 55.0000 -73.2667 232° Southwest 470 541 32,100  Level Gander Center
Mon 10:02:46 PM 54.9000 -73.4500 227° Southwest 470 541 32,100  Level Gander Center
Mon 10:03:46 PM 54.8167 -73.6167 229° Southwest 470 541 32,100  Level Gander Center
Mon 10:04:46 PM 54.7333 -73.8000 232° Southwest 470 541 32,100  Level Gander Center
Mon 10:05:46 PM 54.6500 -73.9833 232° Southwest 470 541 32,100  Level Gander Center
Mon 10:06:46 PM 54.5667 -74.1333 226° Southwest 470 541 32,100  Level Gander Center
Mon 10:07:46 PM 54.4833 -74.3000 229° Southwest 470 541 32,100  Level Gander Center
Mon 10:08:46 PM 54.4000 -74.4833 232° Southwest 480 552 32,100  Level Gander Center
Mon 10:09:46 PM 54.3000 -74.6500 224° Southwest 470 541 32,100  Level Gander Center
Mon 10:10:46 PM 54.2167 -74.8000 226° Southwest 480 552 32,100  Level Gander Center
Mon 10:11:46 PM 54.1333 -74.9833 232° Southwest 470 541 32,100  Level Gander Center
Mon 10:12:46 PM 54.0500 -75.1500 230° Southwest 480 552 32,100  Level Gander Center
Mon 10:13:46 PM 53.9667 -75.3167 230° Southwest 480 552 32,100  Level Gander Center
Mon 10:14:46 PM 53.8833 -75.4667 227° Southwest 480 552 32,100  Level Gander Center
Mon 10:15:46 PM 53.7833 -75.6333 225° Southwest 470 541 32,100  Level Gander Center
Mon 10:16:46 PM 53.7000 -75.8000 230° Southwest 480 552 32,100  Level Gander Center
Mon 10:18:05 PM 53.5833 -75.9667 220° Southwest 470 541 32,100  Level Montreal Center
Mon 10:19:05 PM 53.5000 -76.1333 230° Southwest 470 541 32,100  Level Montreal Center
Mon 10:20:05 PM 53.3833 -76.3000 220° Southwest 470 541 32,100  Level Montreal Center
Mon 10:21:05 PM 53.3000 -76.4667 230° Southwest 470 541 32,100  Level Montreal Center
Mon 10:22:05 PM 53.2167 -76.6167 227° Southwest 470 541 32,100  Level Montreal Center
Mon 10:23:05 PM 53.1167 -76.8000 228° Southwest 470 541 32,100  Level Montreal Center
Mon 10:24:05 PM 53.0333 -76.9500 227° Southwest 470 541 32,100  Level Montreal Center
Mon 10:25:05 PM 52.9333 -77.1167 225° Southwest 470 541 32,100  Level Montreal Center
Mon 10:26:05 PM 52.8500 -77.2667 227° Southwest 470 541 32,100  Level Montreal Center
Mon 10:27:05 PM 52.7667 -77.4333 230° Southwest 470 541 32,100  Level Montreal Center
Mon 10:28:05 PM 52.6667 -77.5667 219° Southwest 470 541 32,100  Level Montreal Center
Mon 10:29:05 PM 52.5667 -77.7333 225° Southwest 470 541 32,100  Level Montreal Center
Mon 10:30:05 PM 52.4833 -77.9000 231° Southwest 470 541 32,100  Level Montreal Center
Mon 10:31:05 PM 52.4000 -78.0667 231° Southwest 470 541 32,100  Level Montreal Center
Mon 10:32:05 PM 52.3000 -78.2000 219° Southwest 470 541 32,100  Level Montreal Center
Mon 10:33:05 PM 52.2000 -78.3500 223° Southwest 480 552 32,100  Level Montreal Center
Mon 10:34:05 PM 52.1167 -78.5167 231° Southwest 470 541 32,100  Level Montreal Center
Mon 10:35:05 PM 52.0167 -78.6667 223° Southwest 480 552 32,100  Level Montreal Center
Mon 10:36:05 PM 51.9333 -78.8333 231° Southwest 480 552 32,100  Level Montreal Center
Mon 10:37:05 PM 51.8333 -78.9667 220° Southwest 470 541 32,100  Level Montreal Center
Mon 10:38:05 PM 51.7333 -79.1500 229° Southwest 480 552 32,100  Level Montreal Center
Mon 10:39:05 PM 51.6500 -79.2667 221° Southwest 480 552 32,100  Level Montreal Center
Mon 10:40:05 PM 51.5333 -79.4333 222° Southwest 470 541 32,100  Level Montreal Center
Mon 10:41:04 PM 51.4500 -79.5833 228° Southwest 480 552 32,100 -50 Level Montreal Center
Mon 10:42:04 PM 51.3667 -79.7167 225° Southwest 470 541 32,000  Descending Montreal Center
Mon 10:43:04 PM 51.2500 -79.9000 225° Southwest 480 552 32,100  Climbing Montreal Center
Mon 10:44:04 PM 51.1667 -80.0167 221° Southwest 480 552 32,000  Descending Montreal Center
Mon 10:45:04 PM 51.0667 -80.2000 229° Southwest 480 552 32,100  Climbing Montreal Center
Mon 10:46:04 PM 50.9667 -80.3167 216° Southwest 480 552 32,000  Descending Montreal Center
Mon 10:47:12 PM 50.8500 -80.4667 219° Southwest 490 564 32,100 47 Climbing Toronto Center
Mon 10:48:12 PM 50.7500 -80.6333 227° Southwest 490 564 32,100 -50 Level Toronto Center
Mon 10:49:12 PM 50.6500 -80.7500 217° Southwest 490 564 32,000  Descending Toronto Center
Mon 10:50:12 PM 50.5667 -80.9167 232° Southwest 490 564 32,100  Climbing Toronto Center
Mon 10:51:12 PM 50.4500 -81.0333 213° Southwest 490 564 32,000  Descending Toronto Center
Mon 10:52:12 PM 50.3500 -81.2000 227° Southwest 490 564 32,100 50 Climbing Toronto Center
Mon 10:53:12 PM 50.2667 -81.3500 229° Southwest 490 564 32,100 900 Level Toronto Center
Mon 10:54:12 PM 50.1667 -81.4667 217° Southwest 490 564 33,900 950 Climbing Toronto Center
Mon 10:55:12 PM 50.0667 -81.6333 227° Southwest 490 564 34,000 50 Climbing Toronto Center
Mon 10:56:12 PM 49.9667 -81.7833 224° Southwest 490 564 34,000  Level Toronto Center
Mon 10:57:12 PM 49.8500 -81.9333 220° Southwest 490 564 34,000  Level Toronto Center
Mon 10:58:12 PM 49.7667 -82.0500 222° Southwest 490 564 34,000  Level Toronto Center
Mon 10:59:12 PM 49.6500 -82.2000 220° Southwest 490 564 34,000  Level Toronto Center
Mon 11:00:12 PM 49.5667 -82.3500 229° Southwest 490 564 34,000  Level Toronto Center
Mon 11:01:12 PM 49.4667 -82.4667 217° Southwest 490 564 34,000  Level Toronto Center
Mon 11:02:12 PM 49.3333 -82.5667 206° Southwest 490 564 34,000  Level Toronto Center
Mon 11:03:12 PM 49.2167 -82.6333 200° South 480 552 34,000  Level Toronto Center
Mon 11:04:12 PM 49.0833 -82.7333 206° Southwest 480 552 34,000  Level Toronto Center
Mon 11:05:12 PM 48.9667 -82.8000 201° Southwest 480 552 34,000  Level Toronto Center
Mon 11:06:12 PM 48.8333 -82.9000 206° Southwest 480 552 34,000  Level Toronto Center
Mon 11:07:12 PM 48.7167 -82.9667 201° Southwest 480 552 34,000 16 Level Toronto Center
Mon 11:12:39 PM 48.0450 -83.3200 201° Southwest 474 545 34,100 16 Climbing FlightAware ADS-B
Mon 11:13:21 PM 47.9560 -83.3610 197° South 475 547 34,100 -65 Level FlightAware ADS-B
Mon 11:14:11 PM 47.8510 -83.4110 198° South 476 548 34,000  Descending FlightAware ADS-B
Mon 11:14:55 PM 47.7590 -83.4530 197° South 477 549 34,100 68 Climbing FlightAware ADS-B
Mon 11:15:39 PM 47.6670 -83.4960 197° South 477 549 34,100  Level FlightAware ADS-B
Mon 11:16:21 PM 47.5780 -83.5370 197° South 477 549 34,100  Level FlightAware ADS-B
Mon 11:17:05 PM 47.4850 -83.5800 197° South 477 549 34,100  Level FlightAware ADS-B
Mon 11:17:45 PM 47.4020 -83.6170 197° South 475 547 34,100  Level FlightAware ADS-B
Mon 11:18:25 PM 47.3170 -83.6560 197° South 475 547 34,100  Level FlightAware ADS-B
Mon 11:19:09 PM 47.2250 -83.6980 197° South 473 544 34,100  Level FlightAware ADS-B
Mon 11:19:55 PM 47.1300 -83.7410 197° South 473 544 34,100  Level FlightAware ADS-B
Mon 11:20:33 PM 47.0500 -83.7770 197° South 472 543 34,100  Level FlightAware ADS-B
Mon 11:21:18 PM 46.9570 -83.8190 197° South 471 542 34,100  Level FlightAware ADS-B
Mon 11:21:52 PM 46.8850 -83.8510 197° South 470 541 34,100  Level FlightAware ADS-B
Mon 11:22:36 PM 46.7930 -83.8920 197° South 468 539 34,100  Level FlightAware ADS-B
Mon 11:23:16 PM 46.7120 -83.9280 197° South 466 536 34,100  Level FlightAware ADS-B
Mon 11:23:52 PM 46.6370 -83.9610 197° South 464 534 34,100 -81 Level FlightAware ADS-B
Mon 11:24:30 PM 46.5590 -83.9960 197° South 462 532 34,000  Descending FlightAware ADS-B
Mon 11:25:14 PM 46.4700 -84.0350 197° South 458 527 34,100 68 Climbing FlightAware ADS-B
Mon 11:25:58 PM 46.3830 -84.0730 197° South 456 525 34,100  Level FlightAware ADS-B
Mon 11:26:40 PM 46.2970 -84.1110 197° South 454 522 34,100 -73 Level FlightAware ADS-B
Mon 11:27:20 PM 46.2160 -84.1460 197° South 455 524 34,000  Descending FlightAware ADS-B
Mon 11:27:58 PM 46.1390 -84.1800 197° South 455 524 34,100  Climbing FlightAware ADS-B
Mon 11:28:42 PM 46.0500 -84.2190 197° South 455 524 34,000  Descending FlightAware ADS-B
Mon 11:29:21 PM 45.9730 -84.2520 197° South 455 524 34,100  Climbing FlightAware ADS-B
Mon 11:30:03 PM 45.8870 -84.2890 197° South 454 522 34,000  Descending FlightAware ADS-B
Mon 11:30:41 PM 45.8110 -84.3220 197° South 454 522 34,100 76 Climbing FlightAware ADS-B
Mon 11:31:22 PM 45.7300 -84.3570 197° South 455 524 34,100 -75 Level FlightAware ADS-B
Mon 11:32:01 PM 45.6500 -84.3910 197° South 454 522 34,000  Descending FlightAware ADS-B
Mon 11:32:41 PM 45.5690 -84.4250 196° South 456 525 34,100  Climbing FlightAware ADS-B
Mon 11:33:26 PM 45.4800 -84.4630 197° South 457 526 34,000  Descending FlightAware ADS-B
Mon 11:34:07 PM 45.3950 -84.4990 197° South 458 527 34,100 72 Climbing FlightAware ADS-B
Mon 11:34:49 PM 45.3090 -84.5350 196° South 459 528 34,100  Level FlightAware ADS-B
Mon 11:35:33 PM 45.2210 -84.5720 196° South 459 528 34,100  Level FlightAware ADS-B
Mon 11:36:03 PM 45.1610 -84.5970 196° South 457 526 34,100  Level FlightAware ADS-B
Mon 11:36:49 PM 45.0670 -84.6370 197° South 456 525 34,100  Level FlightAware ADS-B
Mon 11:37:29 PM 44.9850 -84.6710 196° South 456 525 34,100  Level FlightAware ADS-B
Mon 11:38:13 PM 44.8970 -84.7080 197° South 455 524 34,100 -71 Level FlightAware ADS-B
Mon 11:38:53 PM 44.8150 -84.7410 196° South 455 524 34,000  Descending FlightAware ADS-B
Mon 11:39:35 PM 44.7310 -84.7760 196° South 455 524 34,100 69 Climbing FlightAware ADS-B
Mon 11:40:20 PM 44.6420 -84.8130 196° South 455 524 34,100  Level FlightAware ADS-B
Mon 11:40:51 PM 44.5790 -84.8390 196° South 455 524 34,100  Level FlightAware ADS-B
Mon 11:41:31 PM 44.4980 -84.8720 196° South 455 524 34,100  Level FlightAware ADS-B
Mon 11:42:19 PM 44.4010 -84.9120 196° South 453 521 34,100  Level FlightAware ADS-B
Mon 11:42:52 PM 44.3340 -84.9390 196° South 451 519 34,100  Level FlightAware ADS-B
Mon 11:43:33 PM 44.2520 -84.9720 196° South 450 518 34,100  Level FlightAware ADS-B
Mon 11:44:14 PM 44.1690 -85.0050 196° South 449 517 34,100 -71 Level FlightAware ADS-B
Mon 11:44:57 PM 44.0850 -85.0400 197° South 448 516 34,000  Descending FlightAware ADS-B
Mon 11:45:40 PM 43.9980 -85.0740 196° South 447 514 34,100 71 Climbing FlightAware ADS-B
Mon 11:46:21 PM 43.9180 -85.1070 197° South 447 514 34,100  Level FlightAware ADS-B
Mon 11:47:01 PM 43.8380 -85.1390 196° South 448 516 34,100  Level FlightAware ADS-B
Mon 11:47:45 PM 43.7490 -85.1710 195° South 450 518 34,100  Level FlightAware ADS-B
Mon 11:48:30 PM 43.6560 -85.1970 191° South 451 519 34,100  Level FlightAware ADS-B
Mon 11:49:09 PM 43.5780 -85.2160 190° South 452 520 34,100  Level FlightAware ADS-B
Mon 11:49:54 PM 43.4840 -85.2380 190° South 452 520 34,100  Level FlightAware ADS-B
Mon 11:50:34 PM 43.4010 -85.2570 189° South 452 520 34,100  Level FlightAware ADS-B
Mon 11:51:18 PM 43.3100 -85.2790 190° South 450 518 34,100  Level FlightAware ADS-B
Mon 11:51:51 PM 43.2430 -85.2950 190° South 449 517 34,100  Level FlightAware ADS-B
Mon 11:52:32 PM 43.1590 -85.3150 190° South 447 514 34,100  Level FlightAware ADS-B
Mon 11:53:16 PM 43.0690 -85.3360 190° South 447 514 34,100  Level FlightAware ADS-B
Mon 11:53:55 PM 42.9910 -85.3550 190° South 447 514 34,100  Level FlightAware ADS-B
Mon 11:54:40 PM 42.8990 -85.3770 190° South 446 513 34,100  Level FlightAware ADS-B
Mon 11:55:20 PM 42.8170 -85.3960 190° South 447 514 34,100 -74 Level FlightAware ADS-B
Mon 11:56:01 PM 42.7340 -85.4150 190° South 446 513 34,000  Descending FlightAware ADS-B
Mon 11:56:41 PM 42.6530 -85.4340 190° South 445 512 34,100 77 Climbing FlightAware ADS-B
Mon 11:57:19 PM 42.5770 -85.4520 190° South 446 513 34,100  Level FlightAware ADS-B
Mon 11:58:03 PM 42.4860 -85.4730 190° South 446 513 34,100  Level FlightAware ADS-B
Mon 11:58:42 PM 42.4070 -85.4910 190° South 448 516 34,100  Level FlightAware ADS-B
Mon 11:59:20 PM 42.3290 -85.5100 190° South 449 517 34,100 -78 Level FlightAware ADS-B
Mon 11:59:59 PM 42.2530 -85.5270 189° South 451 519 34,000  Descending FlightAware ADS-B
Tue 12:00:38 AM 42.1690 -85.5460 190° South 453 521 34,100  Climbing FlightAware ADS-B
Tue 12:01:26 AM 42.0710 -85.5690 190° South 456 525 34,000  Descending FlightAware ADS-B
Tue 12:02:05 AM 41.9910 -85.5870 189° South 458 527 34,100 74 Climbing FlightAware ADS-B
Tue 12:02:47 AM 41.9030 -85.6070 190° South 459 528 34,100  Level FlightAware ADS-B
Tue 12:03:30 AM 41.8100 -85.6290 190° South 459 528 34,100  Level FlightAware ADS-B
Tue 12:04:13 AM 41.7240 -85.6480 189° South 458 527 34,100 -70 Level FlightAware ADS-B
Tue 12:04:56 AM 41.6300 -85.6700 190° South 457 526 34,000  Descending FlightAware ADS-B
Tue 12:05:30 AM 41.5600 -85.6850 189° South 455 524 34,100 73 Climbing FlightAware ADS-B
Tue 12:06:18 AM 41.4590 -85.7080 190° South 453 521 34,100 -65 Level FlightAware ADS-B
Tue 12:07:03 AM 41.3660 -85.7290 190° South 451 519 34,000 -71 Descending FlightAware ADS-B
Tue 12:07:43 AM 41.2860 -85.7470 190° South 449 517 34,000 74 Level FlightAware ADS-B
Tue 12:08:24 AM 41.2000 -85.7660 189° South 450 518 34,100  Climbing FlightAware ADS-B
Tue 12:09:08 AM 41.1110 -85.7860 190° South 450 518 34,000 -70 Descending FlightAware ADS-B
Tue 12:09:50 AM 41.0240 -85.8050 189° South 451 519 34,000 71 Level FlightAware ADS-B
Tue 12:10:32 AM 40.9360 -85.8250 190° South 453 521 34,100  Climbing FlightAware ADS-B
Tue 12:11:02 AM 40.8760 -85.8380 189° South 454 522 34,000  Descending FlightAware ADS-B
Tue 12:11:50 AM 40.7750 -85.8600 189° South 455 524 34,100 68 Climbing FlightAware ADS-B
Tue 12:12:30 AM 40.6930 -85.8780 189° South 455 524 34,100 -79 Level FlightAware ADS-B
Tue 12:13:06 AM 40.6170 -85.8950 190° South 456 525 34,000  Descending FlightAware ADS-B
Tue 12:13:46 AM 40.5360 -85.9130 190° South 455 524 34,100 73 Climbing FlightAware ADS-B
Tue 12:14:28 AM 40.4470 -85.9320 189° South 453 521 34,100  Level FlightAware ADS-B
Tue 12:15:08 AM 40.3650 -85.9500 189° South 453 521 34,100 -70 Level FlightAware ADS-B
Tue 12:15:54 AM 40.2700 -85.9710 190° South 452 520 34,000 -70 Descending FlightAware ADS-B
Tue 12:16:34 AM 40.1900 -85.9980 194° South 451 519 34,000  Level FlightAware ADS-B
Tue 12:17:18 AM 40.1150 -86.0680 216° Southwest 444 511 34,000 -156 Level FlightAware ADS-B
Tue 12:17:51 AM 40.0650 -86.1190 218° Southwest 440 506 33,800 -789 Descending FlightAware ADS-B
Tue 12:18:34 AM 39.9930 -86.1920 218° Southwest 441 507 33,000 -1,157 Descending FlightAware ADS-B
Tue 12:19:14 AM 39.9300 -86.2580 219° Southwest 441 507 32,200 -1,216 Descending FlightAware ADS-B
Tue 12:19:48 AM 39.8760 -86.3150 219° Southwest 443 510 31,500 -1,275 Descending FlightAware ADS-B
Tue 12:20:34 AM 39.8000 -86.3910 218° Southwest 446 513 30,500 -1,326 Descending FlightAware ADS-B
Tue 12:21:14 AM 39.7210 -86.4190 195° South 449 517 29,600 -2,268 Descending FlightAware ADS-B
Tue 12:21:56 AM 39.6360 -86.4110 176° South 429 494 27,400 -2,214 Descending FlightAware ADS-B
Tue 12:22:38 AM 39.5600 -86.4010 174° South 363 418 26,500 -1,535 Descending FlightAware ADS-B
Tue 12:23:22 AM 39.4890 -86.3920 174° South 338 389 25,200 -1,857 Descending FlightAware ADS-B
Tue 12:24:02 AM 39.4280 -86.3850 175° South 336 387 23,900 -1,852 Descending FlightAware ADS-B
Tue 12:24:43 AM 39.3640 -86.3780 175° South 337 388 22,700 -1,737 Descending FlightAware ADS-B
Tue 12:25:18 AM 39.3090 -86.3710 174° South 337 388 21,700 -1,747 Descending FlightAware ADS-B
Tue 12:26:02 AM 39.2420 -86.3630 175° South 336 387 20,400 -1,800 Descending FlightAware ADS-B
Tue 12:26:38 AM 39.1850 -86.3560 175° South 333 383 19,300 -1,895 Descending FlightAware ADS-B
Tue 12:27:18 AM 39.1240 -86.3490 175° South 333 383 18,000 -1,347 Descending FlightAware ADS-B
Tue 12:28:16 AM 39.0430 -86.3390 175° South 334 384 17,100 -1,837 Descending FlightAware ADS-B
Tue 12:28:56 AM 38.9730 -86.3320 176° South 334 384 15,000 -1,654 Descending FlightAware ADS-B
Tue 12:30:23 AM 38.8490 -86.3160 174° South 333 383 13,600 -1,619 Descending FlightAware ADS-B
Tue 12:31:02 AM 38.7800 -86.3090 175° South 318 366 11,600 -2,051 Descending FlightAware ADS-B
Tue 12:31:42 AM 38.7240 -86.3010 174° South 301 346 10,900 -947 Descending FlightAware ADS-B
Tue 12:32:18 AM 38.6830 -86.2660 146° Southeast 315 362 10,400 -675 Descending FlightAware ADS-B
Tue 12:33:02 AM 38.6440 -86.2000 127° Southeast 313 360 10,000 -286 Descending FlightAware ADS-B
Tue 12:33:42 AM 38.6090 -86.1420 128° Southeast 312 359 10,000  Level FlightAware ADS-B
Tue 12:34:28 AM 38.5700 -86.0740 126° Southeast 324 373 10,000 -65 Level FlightAware ADS-B
Tue 12:35:14 AM 38.5290 -86.0040 127° Southeast 297 342 9,900 -429 Descending FlightAware ADS-B
Tue 12:35:38 AM 38.5100 -85.9700 126° Southeast 290 334 9,500 -1,143 Descending FlightAware ADS-B
Tue 12:35:56 AM 38.4970 -85.9480 127° Southeast 285 328 9,100 -1,227 Descending FlightAware ADS-B
Tue 12:36:22 AM 38.4760 -85.9110 126° Southeast 281 323 8,600 -1,154 Descending FlightAware ADS-B
Tue 12:36:48 AM 38.4560 -85.8780 128° Southeast 277 319 8,100 -1,286 Descending FlightAware ADS-B
Tue 12:37:18 AM 38.4300 -85.8420 133° Southeast 273 314 7,400 -1,355 Descending FlightAware ADS-B
Tue 12:37:50 AM 38.3960 -85.8150 148° Southeast 270 311 6,700 -1,345 Descending FlightAware ADS-B
Tue 12:38:16 AM 38.3680 -85.7930 148° Southeast 269 310 6,100 -778 Descending FlightAware ADS-B
Tue 12:38:44 AM 38.3390 -85.7700 148° Southeast 269 310 6,000 -107 Descending FlightAware ADS-B
Tue 12:39:12 AM 38.3090 -85.7460 148° Southeast 266 306 6,000  Level FlightAware ADS-B
Tue 12:39:42 AM 38.2780 -85.7210 148° Southeast 267 307 6,000  Level FlightAware ADS-B
Tue 12:40:10 AM 38.2480 -85.6970 148° Southeast 270 311 6,000 -429 Level FlightAware ADS-B
Tue 12:40:38 AM 38.2190 -85.6760 150° Southeast 266 306 5,600 -964 Descending FlightAware ADS-B
Tue 12:41:06 AM 38.1860 -85.6580 157° South 265 305 5,100 -964 Descending FlightAware ADS-B
Tue 12:41:34 AM 38.1550 -85.6420 158° South 259 298 4,700 -964 Descending FlightAware ADS-B
Tue 12:42:02 AM 38.1230 -85.6280 161° South 259 298 4,200 -1,071 Descending FlightAware ADS-B
Tue 12:42:30 AM 38.0910 -85.6200 169° South 255 293 3,700 -1,000 Descending FlightAware ADS-B
Tue 12:42:50 AM 38.0680 -85.6130 167° South 250 288 3,400 -656 Descending FlightAware ADS-B
Tue 12:43:34 AM 38.0230 -85.6270 194° South 230 265 3,000 -429 Descending FlightAware ADS-B
Tue 12:43:46 AM 38.0190 -85.6410 250° West 219 252 3,000 -308 Level FlightAware ADS-B
Tue 12:44:13 AM 38.0280 -85.6690 292° West 202 232 2,800 -571 Descending FlightAware ADS-B
Tue 12:44:28 AM 38.0390 -85.6780 327° Northwest 197 227 2,600 -480 Descending FlightAware ADS-B
Tue 12:44:38 AM 38.0480 -85.6840 332° Northwest 194 223 2,600 -300 Level FlightAware ADS-B
Tue 12:45:08 AM 38.0750 -85.6930 345° North 188 216 2,400 -712 Descending FlightAware ADS-B
Tue 12:45:37 AM 38.0980 -85.7010 345° North 168 193 1,900 -931 Descending FlightAware ADS-B
Tue 12:46:06 AM 38.1180 -85.7080 345° North 149 171 1,500 -842 Descending FlightAware ADS-B
Tue 12:46:34 AM 38.1360 -85.7140 345° North 142 163 1,100 -750 Descending FlightAware ADS-B
Tue 12:47:02 AM 38.1540 -85.7200 345° North 143 165 800 -643 Descending FlightAware ADS-B
Tue 12:47:31 AM 38.1720 -85.7260 345° North 135 155 -1,655 Descending FlightAware ADS-B
Tue 12:47:51 AM 38.1810 -85.7290 345° North 56 64  Level FlightAware ADS-B
Tue 12:48:04 AM 38.1830 -85.7300 339° North 27 31  Level FlightAware ADS-B
Tue 12:50:00 AM 38.1667 -85.7333 152° Southeast  Level FlightAware Approximate
Tue 12:51:00 AM 38.1741 -85.7365 152° Southeast  Level Estimated
Tue 12:52:00 AM 38.1741 -85.7365 152° Southeast  Level Estimated
Tue 12:53:00 AM 38.1741 -85.7365 152° Southeast  Level Estimated
Tue 12:54:00 AM 38.1741 -85.7365 152° Southeast  Level Estimated
Tue 12:55:00 AM 38.1741 -85.7365 152° Southeast  Level Estimated
Tue 12:56:00 AM 38.1741 -85.7365 152° Southeast  Level Estimated
Tue 12:57:00 AM 38.1741 -85.7365 152° Southeast  Level Estimated

Login

Don't have an account? Register now (free) for customized features, flight alerts, and more!